Flight Track Log - Related Links

Times and Time Zones

All times are in EDT time to prevent confusion due to time zone crossing. See the UAL4843 flight status page for this flight to view local times or setup timezone preferences in your user account.

Time Position Orientation Groundspeed Altitude Reporting Facility
EDT Latitude Longitude Course Direction KTS MPH feet Rate Location/Type
Thu 10:34:38 AM 41.9458 -72.6803 82° East 122 140 700  Level Boston Center
Thu 10:35:57 AM 41.9542 -72.5992 82° East 170 196 2,700 1,461 Climbing Boston Center
Thu 10:37:10 AM 41.9253 -72.5294 119° Southeast 191 220 4,400 1,397 Climbing Boston Center
Thu 10:37:53 AM 41.8939 -72.5125 158° South 192 221 5,400 932 Climbing Boston Center
Thu 10:38:53 AM 41.8461 -72.5378 202° Southwest 200 230 6,000 298 Climbing Boston Center
Thu 10:39:54 AM 41.7939 -72.5989 221° Southwest 240 276 6,000  Level Boston Center
Thu 10:40:55 AM 41.7417 -72.6572 220° Southwest 251 289 6,000  Level Boston Center
Thu 10:42:02 AM 41.6853 -72.7208 220° Southwest 251 289 6,000  Level Boston Center
Thu 10:43:42 AM 41.6000 -72.8167 220° Southwest 251 289 6,000  Level New York TRACON
Thu 10:44:42 AM 41.5333 -72.8833 217° Southwest 253 291 6,000  Level New York TRACON
Thu 10:45:42 AM 41.5000 -72.9500 236° Southwest 249 287 6,000  Level New York TRACON
Thu 10:46:42 AM 41.4667 -73.0333 242° Southwest 244 281 6,000  Level New York TRACON
Thu 10:47:42 AM 41.4500 -73.1167 255° West 244 281 6,000  Level New York TRACON
Thu 10:48:42 AM 41.4167 -73.2000 242° Southwest 245 282 6,000  Level New York TRACON
Thu 10:49:42 AM 41.3833 -73.2833 242° Southwest 244 281 6,000  Level New York TRACON
Thu 10:50:42 AM 41.3500 -73.3667 242° Southwest 246 283 6,000  Level New York TRACON
Thu 10:51:48 AM 41.3333 -73.4500 255° West 242 278 6,000  Level New York TRACON
Thu 10:52:42 AM 41.3000 -73.5333 242° Southwest 246 283 6,000 -53 Level New York TRACON
Thu 10:53:42 AM 41.2833 -73.6167 255° West 242 278 5,900  Descending New York TRACON
Thu 10:54:42 AM 41.2667 -73.7000 255° West 236 272 6,000 -200 Climbing New York TRACON
Thu 10:55:42 AM 41.2667 -73.7833 270° West 241 277 5,500 -500 Descending New York TRACON
Thu 10:56:42 AM 41.2500 -73.8667 255° West 241 277 5,000 -238 Descending New York TRACON
Thu 10:57:48 AM 41.2500 -73.9667 270° West 226 260 5,000  Level New York TRACON
Thu 10:58:48 AM 41.2333 -74.0500 255° West 227 261 5,000 -50 Level New York TRACON
Thu 10:59:48 AM 41.2333 -74.1333 270° West 228 262 4,900  Descending New York TRACON
Thu 11:00:48 AM 41.2167 -74.2167 255° West 227 261 5,000  Climbing New York TRACON
Thu 11:01:42 AM 41.2167 -74.2833 270° West 238 274 4,900 -50 Descending New York TRACON
Thu 11:02:48 AM 41.1333 -74.3167 197° South 265 305 4,900  Level New York TRACON
Thu 11:03:48 AM 41.0667 -74.3500 201° Southwest 266 306 4,900  Level New York TRACON
Thu 11:04:42 AM 41.0000 -74.3833 201° Southwest 261 300 4,900  Level New York TRACON
Thu 11:05:48 AM 40.9333 -74.4167 201° Southwest 262 302 4,900  Level New York TRACON
Thu 11:06:48 AM 40.8667 -74.4667 210° Southwest 261 300 4,900  Level New York TRACON
Thu 11:07:48 AM 40.8000 -74.5000 201° Southwest 261 300 4,900  Level New York TRACON
Thu 11:08:48 AM 40.7167 -74.5000 180° South 261 300 4,900  Level New York TRACON
Thu 11:09:48 AM 40.6500 -74.5167 191° South 265 305 4,900 -150 Level New York TRACON
Thu 11:10:48 AM 40.5833 -74.5000 169° South 239 275 4,600 -500 Descending New York TRACON
Thu 11:11:48 AM 40.5333 -74.4500 143° Southeast 224 258 3,900 -450 Descending New York TRACON
Thu 11:12:48 AM 40.5167 -74.3833 108° East 209 241 3,700 -316 Descending New York TRACON
Thu 11:13:42 AM 40.5167 -74.3167 90° East 198 228 3,300 -421 Descending New York TRACON
Thu 11:14:42 AM 40.5500 -74.2667 49° Northeast 190 219 2,900 -600 Descending New York TRACON
Thu 11:15:42 AM 40.6000 -74.2333 27° Northeast 186 214 2,100 -900 Descending New York TRACON
Thu 11:16:42 AM 40.6333 -74.2000 37° Northeast 162 186 1,100 -1,000 Descending New York TRACON
Thu 11:18:00 AM 40.6833 -74.1667 66° East  Level FlightAware Approximate
Thu 11:25:00 AM 40.6925 -74.1687 66° East  Level Estimated
Thu 11:26:00 AM 40.6925 -74.1687 66° East  Level Estimated

Login

Don't have an account? Register now (free) for customized features, flight alerts, and more!